Kamp-Lintfort Airport

EDLC · Nordrhein-Westfalen, Deutschland

METAR-Geschichte EDLC · Kamp-Lintfort Airport

Unten siehst du die METARs der letzten paar Tage. Wähle ein Jahr, um ältere METARs ab dem Jahr 2007 zu durchsuchen.

5. Dezember 2022

Uhrzeit Code Wetter Temp. Sichtweite Wolkendecke Wind METAR/SPECI
06:20
I
3 °C 4,4 km 500 ft 060° 060° 4 kt METAR EDLV 050520Z 06004KT 010V110 4400 -RA BR OVC005 03/02 Q1017
05:50
I
3 °C 4,5 km 500 ft Var Var 4 kt METAR EDLV 050450Z VRB04KT 4500 BR OVC005 03/02 Q1017
05:20
L
3 °C 4 km 400 ft 040° 040° 4 kt METAR EDLV 050420Z 04004KT 360V080 4000 BR OVC004 03/02 Q1017
04:50
L
3 °C 3,6 km 400 ft 040° 040° 3 kt METAR EDLV 050350Z 04003KT 340V110 3600 -RA BR OVC004 03/02 Q1017
04:20
L
3 °C 3,6 km 400 ft 050° 050° 3 kt METAR EDLV 050320Z AUTO 05003KT 340V090 3600 // OVC004/// 03/02 Q1017
03:50
I
3 °C 4,8 km 600 ft 040° 040° 4 kt METAR EDLV 050250Z AUTO 04004KT 340V100 4800 // OVC006/// 03/02 Q1017
03:20
I
3 °C 6 km 700 ft 040° 040° 4 kt METAR EDLV 050220Z AUTO 04004KT 350V100 6000 // OVC007/// 03/02 Q1017
02:50
I
3 °C 6 km 700 ft Var Var 3 kt METAR EDLV 050150Z AUTO VRB03KT 6000 // OVC007/// 03/01 Q1017
02:20
I
3 °C 6 km 700 ft Var Var 4 kt METAR EDLV 050120Z AUTO VRB04KT 6000 // OVC007/// 03/01 Q1017
01:50
I
3 °C 6 km 700 ft Var Var 4 kt METAR EDLV 050050Z AUTO VRB04KT 6000 // OVC007/// 03/01 Q1017
01:20
I
3 °C 6 km 700 ft 040° 040° 4 kt METAR EDLV 050020Z AUTO 04004KT 350V090 6000 // OVC007/// 03/01 Q1017
00:50
I
3 °C 6 km 800 ft 040° 040° 4 kt METAR EDLV 042350Z AUTO 04004KT 350V080 6000 // OVC008/// 03/01 Q1017
00:20
I
2 °C 7 km 800 ft 030° 030° 4 kt METAR EDLV 042320Z AUTO 03004KT 340V080 7000 // OVC008/// 02/01 Q1017

4. Dezember 2022

Uhrzeit Code Wetter Temp. Sichtweite Wolkendecke Wind METAR/SPECI
23:50
I
2 °C 7 km 800 ft 040° 040° 4 kt METAR EDLV 042250Z AUTO 04004KT 010V090 7000 // OVC008/// 02/01 Q1017
23:20
I
2 °C 7 km 800 ft 040° 040° 4 kt METAR EDLV 042220Z 04004KT 010V080 7000 OVC008 02/01 Q1017
22:50
I
2 °C 7 km 800 ft 040° 040° 4 kt METAR EDLV 042150Z 04004KT 340V110 7000 OVC008 02/01 Q1017
22:20
I
2 °C 6 km 700 ft 060° 060° 4 kt METAR EDLV 042120Z 06004KT 360V110 6000 OVC007 02/01 Q1017
21:50
I
2 °C 6 km 700 ft 050° 050° 5 kt METAR EDLV 042050Z 05005KT 010V100 6000 OVC007 02/01 Q1017
21:20
I
2 °C 8 km 900 ft 050° 050° 5 kt METAR EDLV 042020Z 05005KT 010V100 8000 OVC009 02/01 Q1017
20:50
I
2 °C 9 km 900 ft 040° 040° 6 kt METAR EDLV 041950Z 04006KT 010V100 9000 OVC009 02/00 Q1017
20:20
M
2 °C 9 km 1.000 ft 050° 050° 4 kt METAR EDLV 041920Z 05004KT 330V140 9000 OVC010 02/00 Q1017
19:50
M
2 °C 9 km 1.100 ft 050° 050° 4 kt METAR EDLV 041850Z 05004KT 350V120 9000 OVC011 02/00 Q1017
19:20
M
2 °C 9 km 1.100 ft 050° 050° 5 kt METAR EDLV 041820Z 05005KT 360V110 9000 OVC011 02/00 Q1017
18:50
M
2 °C 10 km+ 1.300 ft 070° 070° 5 kt METAR EDLV 041750Z 07005KT 010V120 9999 OVC013 02/M00 Q1017
18:20
M
2 °C 10 km+ 1.300 ft 060° 060° 5 kt METAR EDLV 041720Z 06005KT 360V110 9999 OVC013 02/M00 Q1017
17:50
M
2 °C 10 km+ 1.300 ft 060° 060° 5 kt METAR EDLV 041650Z 06005KT 010V140 9999 OVC013 02/M00 Q1017
17:20
M
2 °C 10 km+ 1.300 ft 070° 070° 3 kt METAR EDLV 041620Z 07003KT 020V130 9999 OVC013 02/M00 Q1016
16:50
M
2 °C 10 km+ 1.300 ft 080° 080° 5 kt METAR EDLV 041550Z 08005KT 020V140 9999 OVC013 02/M00 Q1016
16:20
M
2 °C 10 km+ 1.200 ft 060° 060° 5 kt METAR EDLV 041520Z 06005KT 330V100 9999 OVC012 02/M00 Q1016
15:50
M
2 °C 10 km+ 1.200 ft 070° 070° 5 kt METAR EDLV 041450Z 07005KT 020V120 9999 OVC012 02/M00 Q1016
15:20
M
2 °C 10 km+ 1.200 ft Var Var 3 kt METAR EDLV 041420Z VRB03KT 9999 OVC012 02/M00 Q1016
14:50
M
2 °C 10 km+ 1.200 ft Var Var 5 kt METAR EDLV 041350Z VRB05KT 9999 OVC012 02/M00 Q1016
14:20
M
2 °C 10 km+ 1.300 ft 090° 090° 4 kt METAR EDLV 041320Z 09004KT 040V150 9999 OVC013 02/M01 Q1016
13:50
M
2 °C 10 km+ 1.300 ft 080° 080° 3 kt METAR EDLV 041250Z 08003KT 360V150 9999 OVC013 02/M01 Q1016
13:20
M
2 °C 10 km+ 1.300 ft 080° 080° 4 kt METAR EDLV 041220Z 08004KT 010V140 9999 OVC013 02/M01 Q1017
12:50
M
2 °C 10 km+ 1.300 ft 070° 070° 4 kt METAR EDLV 041150Z 07004KT 010V130 9999 OVC013 02/M01 Q1017
12:20
M
2 °C 10 km+ 1.300 ft 070° 070° 6 kt METAR EDLV 041120Z 07006KT 030V100 9999 OVC013 02/M01 Q1017
11:50
M
1 °C 10 km+ 1.200 ft 080° 080° 4 kt METAR EDLV 041050Z 08004KT 360V140 9999 OVC012 01/M01 Q1017
11:20
M
1 °C 10 km+ 1.200 ft 070° 070° 5 kt METAR EDLV 041020Z 07005KT 010V120 9999 OVC012 01/M01 Q1017
10:50
M
1 °C 10 km+ 1.200 ft 070° 070° 5 kt METAR EDLV 040950Z 07005KT 010V120 9999 OVC012 01/M01 Q1017
10:20
M
1 °C 10 km+ 1.200 ft 070° 070° 5 kt METAR EDLV 040920Z 07005KT 020V120 9999 OVC012 01/M01 Q1017
09:50
M
1 °C 10 km+ 1.300 ft 070° 070° 5 kt METAR EDLV 040850Z 07005KT 350V140 9999 OVC013 01/M01 Q1017
09:20
M
1 °C 10 km+ 1.300 ft 070° 070° 4 kt METAR EDLV 040820Z 07004KT 010V130 9999 BKN013 OVC021 01/M01 Q1017
08:50
M
1 °C 9 km 2.700 ft 060° 060° 6 kt METAR EDLV 040750Z 06006KT 010V120 9000 SCT013 OVC027 01/M01 Q1017
08:20
M
1 °C 9 km 1.300 ft 060° 060° 4 kt METAR EDLV 040720Z 06004KT 360V140 9000 BKN013 OVC028 01/M01 Q1017
07:50
M
1 °C 9 km 1.300 ft 070° 070° 4 kt METAR EDLV 040650Z 07004KT 020V130 9000 BKN013 OVC030 01/M01 Q1017
07:20
M
1 °C 8 km 1.300 ft 060° 060° 5 kt METAR EDLV 040620Z 06005KT 330V130 8000 BKN013 OVC031 01/M01 Q1017
06:50
M
1 °C 7 km 1.200 ft 060° 060° 4 kt METAR EDLV 040550Z 06004KT 020V150 7000 OVC012 01/M01 Q1017
06:20
M
1 °C 6 km 1.200 ft 060° 060° 4 kt METAR EDLV 040520Z 06004KT 360V150 6000 OVC012 01/M01 Q1017
05:50
M
1 °C 6 km 1.200 ft 070° 070° 5 kt METAR EDLV 040450Z 07005KT 350V120 6000 OVC012 01/M01 Q1017
05:20
M
1 °C 6 km 1.200 ft 060° 060° 4 kt METAR EDLV 040420Z 06004KT 010V120 6000 OVC012 01/M01 Q1017
04:50
M
1 °C 6 km 1.200 ft 060° 060° 4 kt METAR EDLV 040350Z AUTO 06004KT 330V120 6000 // BKN012/// OVC035/// 01/M01 Q1017
04:20
M
1 °C 6 km 1.200 ft 050° 050° 4 kt METAR EDLV 040320Z AUTO 05004KT 010V110 6000 // BKN012/// OVC035/// 01/M01 Q1017
03:50
M
1 °C 6 km 1.200 ft 050° 050° 5 kt METAR EDLV 040250Z AUTO 05005KT 010V100 6000 // BKN012/// OVC036/// 01/M01 Q1017
03:20
M
1 °C 7 km 1.300 ft 060° 060° 4 kt METAR EDLV 040220Z AUTO 06004KT 340V120 7000 // BKN013/// OVC036/// 01/M01 Q1017
02:50
M
1 °C 7 km 3.600 ft 060° 060° 4 kt METAR EDLV 040150Z AUTO 06004KT 010V110 7000 // FEW012/// OVC036/// 01/M01 Q1017
02:20
M
1 °C 7 km 3.700 ft 060° 060° 4 kt METAR EDLV 040120Z AUTO 06004KT 020V130 7000 // FEW012/// OVC037/// 01/M02 Q1017
01:50
M
1 °C 7 km 3.800 ft 060° 060° 4 kt METAR EDLV 040050Z AUTO 06004KT 010V110 7000 // FEW013/// OVC038/// 01/M01 Q1017
01:20
M
1 °C 7 km 3.900 ft Var Var 3 kt METAR EDLV 040020Z AUTO VRB03KT 7000 // FEW012/// OVC039/// 01/M02 Q1017
00:50
M
1 °C 6 km 3.900 ft 070° 070° 4 kt METAR EDLV 032350Z AUTO 07004KT 020V120 6000 // SCT012/// OVC039/// 01/M01 Q1018
00:20
M
1 °C 7 km 3.900 ft 070° 070° 3 kt METAR EDLV 032320Z AUTO 07003KT 010V150 7000 // FEW013/// SCT029/// OVC039/// 01/M01 Q1018

3. Dezember 2022

Uhrzeit Code Wetter Temp. Sichtweite Wolkendecke Wind METAR/SPECI
23:50
M
1 °C 7 km 4.000 ft 060° 060° 4 kt METAR EDLV 032250Z 06004KT 020V120 7000 SCT012 OVC040 01/M01 Q1018
23:20
M
1 °C 7 km 4.000 ft 070° 070° 4 kt METAR EDLV 032220Z 07004KT 010V150 7000 FEW012 OVC040 01/M01 Q1018
22:50
M
1 °C 6 km 1.300 ft 060° 060° 4 kt METAR EDLV 032150Z 06004KT 010V120 6000 BKN013 OVC041 01/M01 Q1018
22:20
M
1 °C 6 km 1.200 ft 070° 070° 4 kt METAR EDLV 032120Z 07004KT 360V140 6000 BKN012 OVC044 01/M01 Q1018
21:50
M
1 °C 6 km 1.300 ft 060° 060° 5 kt METAR EDLV 032050Z 06005KT 010V110 6000 BKN013 OVC047 01/M01 Q1018
21:20
M
1 °C 6 km 1.200 ft 060° 060° 6 kt METAR EDLV 032020Z 06006KT 360V110 6000 BKN012 OVC048 01/M01 Q1018
20:50
M
1 °C 6 km 1.300 ft 040° 040° 4 kt METAR EDLV 031950Z 04004KT 360V100 6000 BKN013 01/M01 Q1018
20:20
M
1 °C 6 km 1.300 ft Var Var 4 kt METAR EDLV 031920Z VRB04KT 6000 OVC013 01/M01 Q1018
19:50
M
1 °C 7 km 1.300 ft 060° 060° 5 kt METAR EDLV 031850Z 06005KT 360V100 7000 OVC013 01/M01 Q1019
19:20
M
1 °C 8 km 1.400 ft 070° 070° 4 kt METAR EDLV 031820Z 07004KT 360V160 8000 OVC014 01/M01 Q1019
18:50
M
1 °C 8 km 1.400 ft Var Var 5 kt METAR EDLV 031750Z VRB05KT 8000 OVC014 01/M01 Q1019
18:20
M
1 °C 8 km 1.300 ft 070° 070° 5 kt METAR EDLV 031720Z 07005KT 010V120 8000 OVC013 01/M01 Q1019
17:50
M
1 °C 7 km 1.200 ft 060° 060° 5 kt METAR EDLV 031650Z 06005KT 330V110 7000 OVC012 01/M01 Q1019
17:20
M
1 °C 8 km 1.200 ft 060° 060° 7 kt METAR EDLV 031620Z 06007KT 010V100 8000 OVC012 01/M01 Q1019
16:50
M
1 °C 8 km 1.300 ft 060° 060° 5 kt METAR EDLV 031550Z 06005KT 360V110 8000 OVC013 01/M01 Q1019
16:20
M
2 °C 9 km 1.500 ft Var Var 4 kt METAR EDLV 031520Z VRB04KT 9000 OVC015 02/M01 Q1019
15:50
M
2 °C 9 km 1.600 ft 060° 060° 5 kt METAR EDLV 031450Z 06005KT 020V090 9000 OVC016 02/M01 Q1019
15:20
M
2 °C 9 km 1.500 ft 070° 070° 5 kt METAR EDLV 031420Z 07005KT 020V110 9000 OVC015 02/M01 Q1019
14:50
M
2 °C 9 km 1.500 ft 060° 060° 4 kt METAR EDLV 031350Z 06004KT 010V130 9000 OVC015 02/M01 Q1019
14:20
M
2 °C 9 km 1.500 ft 070° 070° 3 kt METAR EDLV 031320Z 07003KT 010V130 9000 OVC015 02/M01 Q1020
13:50
M
2 °C 9 km 1.500 ft 070° 070° 3 kt METAR EDLV 031250Z 07003KT 020V120 9000 OVC015 02/M01 Q1020
13:20
M
2 °C 9 km 1.500 ft 080° 080° 5 kt METAR EDLV 031220Z 08005KT 040V130 9000 OVC015 02/M01 Q1020
12:50
M
2 °C 10 km+ 1.500 ft 070° 070° 3 kt METAR EDLV 031150Z 07003KT 010V150 9999 OVC015 02/M01 Q1020
12:20
M
2 °C 10 km+ 1.600 ft 070° 070° 5 kt METAR EDLV 031120Z 07005KT 010V150 9999 OVC016 02/M02 Q1021
11:50
M
2 °C 10 km+ 1.700 ft 070° 070° 5 kt METAR EDLV 031050Z 07005KT 360V140 9999 OVC017 02/M02 Q1021
11:20
M
2 °C 10 km+ 1.700 ft 090° 090° 5 kt METAR EDLV 031020Z 09005KT 350V150 9999 OVC017 02/M02 Q1021
10:50
M
2 °C 10 km+ 1.800 ft 060° 060° 4 kt METAR EDLV 030950Z 06004KT 360V130 9999 OVC018 02/M02 Q1022
10:20
M
2 °C 10 km+ 1.700 ft 070° 070° 5 - 15 kt METAR EDLV 030920Z 07005G15KT 340V120 9999 OVC017 02/M02 Q1022
09:50
M
2 °C 10 km+ 1.600 ft Var Var 5 kt METAR EDLV 030850Z VRB05KT 9999 OVC016 02/M01 Q1022
09:20
M
2 °C 9 km 1.500 ft 070° 070° 6 kt METAR EDLV 030820Z 07006KT 360V110 9000 BKN015 OVC019 02/M01 Q1022
08:50
M
2 °C 10 km+ 1.600 ft 070° 070° 4 kt METAR EDLV 030750Z 07004KT 030V130 9999 OVC016 02/M01 Q1021
08:20
M
2 °C 10 km+ 1.700 ft Var Var 5 kt METAR EDLV 030720Z VRB05KT 9999 SCT014 OVC017 02/M01 Q1021
07:50
M
2 °C 9 km 1.300 ft 070° 070° 4 kt METAR EDLV 030650Z 07004KT 020V150 9000 OVC013 02/M01 Q1021
07:20
M
2 °C 9 km 1.300 ft 060° 060° 5 kt METAR EDLV 030620Z 06005KT 010V110 9000 OVC013 02/M01 Q1022
06:50
M
2 °C 9 km 1.200 ft 060° 060° 4 kt METAR EDLV 030550Z 06004KT 010V110 9000 OVC012 02/M00 Q1022
06:20
M
2 °C 9 km 1.200 ft 050° 050° 6 kt METAR EDLV 030520Z 05006KT 340V120 9000 OVC012 02/M00 Q1022
05:50
M
2 °C 10 km+ 1.200 ft 070° 070° 5 kt METAR EDLV 030450Z 07005KT 9999 OVC012 02/M00 Q1022
05:20
M
2 °C 9 km 1.200 ft Var Var 4 kt METAR EDLV 030420Z VRB04KT 9000 OVC012 02/M00 Q1022
04:50
M
2 °C 10 km+ 1.300 ft Var Var 3 kt METAR EDLV 030350Z AUTO VRB03KT 9999 // OVC013/// 02/M01 Q1022
04:20
M
2 °C 10 km+ 1.400 ft 050° 050° 3 kt METAR EDLV 030320Z AUTO 05003KT 010V100 9999 // OVC014/// 02/M01 Q1022
03:50
M
2 °C 10 km+ 1.400 ft 060° 060° 5 kt METAR EDLV 030250Z AUTO 06005KT 360V130 9999 // OVC014/// 02/M01 Q1022
03:20
M
2 °C 10 km+ 1.400 ft Var Var 4 kt METAR EDLV 030220Z AUTO VRB04KT 9999 // OVC014/// 02/M01 Q1022
02:50
M
2 °C 10 km+ 1.500 ft 070° 070° 5 kt METAR EDLV 030150Z AUTO 07005KT 360V120 9999 // OVC015/// 02/M00 Q1023
02:20
M
2 °C 10 km+ 1.500 ft 060° 060° 5 kt METAR EDLV 030120Z AUTO 06005KT 310V120 9999 // OVC015/// 02/M00 Q1023
01:50
M
2 °C 10 km+ 1.500 ft 060° 060° 5 kt METAR EDLV 030050Z AUTO 06005KT 340V140 9999 // OVC015/// 02/M01 Q1023
01:20
M
2 °C 10 km+ 1.500 ft 050° 050° 5 kt METAR EDLV 030020Z AUTO 05005KT 360V100 9999 // OVC015/// 02/M01 Q1023
00:50
M
2 °C 10 km+ 1.600 ft 040° 040° 6 kt METAR EDLV 022350Z AUTO 04006KT 340V120 9999 // OVC016/// 02/M01 Q1023
00:20
M
2 °C 10 km+ 1.500 ft 050° 050° 5 kt METAR EDLV 022320Z AUTO 05005KT 010V100 9999 // OVC015/// 02/M01 Q1023

2. Dezember 2022

Uhrzeit Code Wetter Temp. Sichtweite Wolkendecke Wind METAR/SPECI
23:50
M
2 °C 10 km+ 1.600 ft 050° 050° 7 kt METAR EDLV 022250Z 05007KT 010V100 9999 BKN016 OVC021 02/M01 Q1023
23:20
M
2 °C 10 km+ 1.600 ft 050° 050° 5 kt METAR EDLV 022220Z 05005KT 340V090 9999 BKN016 02/M01 Q1023
22:50
M
2 °C 10 km+ 1.600 ft 050° 050° 5 kt METAR EDLV 022150Z 05005KT 360V090 9999 BKN016 02/M01 Q1023
22:20
M
2 °C 10 km+ 1.500 ft 050° 050° 6 kt METAR EDLV 022120Z 05006KT 360V130 9999 -RA BKN015 BKN042 02/M01 Q1023
21:50
V
2 °C 9 km - 050° 050° 6 kt METAR EDLV 022050Z 05006KT 360V100 9000 -RA SCT015 02/M01 Q1023
21:20
V
2 °C 10 km+ - 050° 050° 6 kt METAR EDLV 022020Z 05006KT 350V120 9999 -RA FEW016 02/M01 Q1023
20:50
M
2 °C 10 km+ 2.000 ft 050° 050° 7 kt METAR EDLV 021950Z 05007KT 340V120 9999 BKN020 02/M01 Q1023
20:20
M
2 °C 10 km+ 2.100 ft 050° 050° 7 kt METAR EDLV 021920Z 05007KT 010V100 9999 BKN021 02/M01 Q1023
19:50
M
3 °C 10 km+ 2.300 ft 050° 050° 7 kt METAR EDLV 021850Z 05007KT 010V100 9999 BKN023 BKN028 03/M01 Q1023
19:20
M
3 °C 10 km+ 2.000 ft 060° 060° 6 kt METAR EDLV 021820Z 06006KT 340V100 9999 OVC020 03/M01 Q1023
18:50
M
3 °C 9 km 2.600 ft 050° 050° 6 kt METAR EDLV 021750Z 05006KT 360V100 9000 FEW019 OVC026 03/M01 Q1023
18:20
M
3 °C 9 km 1.800 ft 050° 050° 6 kt METAR EDLV 021720Z 05006KT 360V130 9000 OVC018 03/M00 Q1023
17:50
M
3 °C 9 km 1.700 ft 050° 050° 6 - 17 kt METAR EDLV 021650Z 05006G17KT 350V100 9000 OVC017 03/M00 Q1023
17:20
M
3 °C 7 km 1.700 ft Var Var 6 kt METAR EDLV 021620Z VRB06KT 7000 OVC017 03/M00 Q1023
16:50
M
3 °C 7 km 1.500 ft 050° 050° 7 - 17 kt METAR EDLV 021550Z 05007G17KT 360V100 7000 OVC015 03/M00 Q1023
16:20
M
3 °C 6 km 1.400 ft 050° 050° 7 kt METAR EDLV 021520Z 05007KT 010V090 6000 OVC014 03/M00 Q1023
15:50
M
3 °C 7 km 1.500 ft 040° 040° 7 kt METAR EDLV 021450Z 04007KT 360V100 7000 OVC015 03/M00 Q1023
15:20
M
3 °C 9 km 1.500 ft 040° 040° 7 kt METAR EDLV 021420Z 04007KT 350V090 9000 SCT013 OVC015 03/00 Q1023
14:50
M
3 °C 10 km+ 1.500 ft Var Var 5 kt METAR EDLV 021350Z VRB05KT 9999 SCT013 OVC015 03/00 Q1023
14:20
M
3 °C 9 km 1.300 ft 050° 050° 7 kt METAR EDLV 021320Z 05007KT 010V100 9000 OVC013 03/01 Q1023
13:50
M
3 °C 9 km 1.300 ft 050° 050° 7 kt METAR EDLV 021250Z 05007KT 010V090 9000 BKN013 OVC040 03/01 Q1023
13:20
M
3 °C 9 km 1.200 ft 040° 040° 8 kt METAR EDLV 021220Z 04008KT 350V110 9000 OVC012 03/01 Q1023
12:50
M
3 °C 9 km 1.300 ft 050° 050° 6 kt METAR EDLV 021150Z 05006KT 360V100 9000 OVC013 03/01 Q1023
12:20
M
3 °C 10 km+ 1.300 ft 040° 040° 7 kt METAR EDLV 021120Z 04007KT 360V100 9999 OVC013 03/01 Q1023
11:50
M
3 °C 10 km+ 1.200 ft 050° 050° 6 kt METAR EDLV 021050Z 05006KT 360V140 9999 OVC012 03/01 Q1024
11:20
I
3 °C 8 km 900 ft 040° 040° 6 kt METAR EDLV 021020Z 04006KT 360V110 8000 OVC009 03/01 Q1023
10:50
I
3 °C 5 km 600 ft 030° 030° 5 kt METAR EDLV 020950Z 03005KT 350V080 5000 BR OVC006 03/02 Q1024

Wir und Dritte verfolgen dein Internetverhalten auf unserer Website mit Cookies. Wenn du fortfährst, gehen wir davon aus, dass du mit unserer Cookie-Richtlinie einverstanden bist.